sensor_id;sensor_type;location;lat;lon;timestamp;pressure;altitude;pressure_sealevel;temperature;humidity
40596;BME280;26304;48.794;9.820;2023-05-16T00:04:34;96003.81;;;18.10;55.24
40596;BME280;26304;48.794;9.820;2023-05-16T00:10:18;96003.06;;;18.10;55.14
40596;BME280;26304;48.794;9.820;2023-05-16T00:16:01;96006.81;;;18.12;55.51
40596;BME280;26304;48.794;9.820;2023-05-16T00:21:45;96005.31;;;18.11;55.47
40596;BME280;26304;48.794;9.820;2023-05-16T00:27:28;95998.94;;;18.05;55.00
40596;BME280;26304;48.794;9.820;2023-05-16T00:33:11;95995.56;;;18.05;55.30
40596;BME280;26304;48.794;9.820;2023-05-16T00:38:53;95994.78;;;18.04;55.09
40596;BME280;26304;48.794;9.820;2023-05-16T00:44:37;95993.31;;;18.03;54.91
40596;BME280;26304;48.794;9.820;2023-05-16T00:50:20;95995.53;;;18.01;55.30
40596;BME280;26304;48.794;9.820;2023-05-16T00:56:04;95989.53;;;18.01;54.54
40596;BME280;26304;48.794;9.820;2023-05-16T01:01:49;95980.13;;;17.96;55.32
40596;BME280;26304;48.794;9.820;2023-05-16T01:07:32;95984.28;;;17.97;54.96
40596;BME280;26304;48.794;9.820;2023-05-16T01:13:21;95981.28;;;17.95;55.53
40596;BME280;26304;48.794;9.820;2023-05-16T01:19:17;95972.25;;;17.96;55.04
40596;BME280;26304;48.794;9.820;2023-05-16T01:25:08;95976.03;;;17.95;55.38
40596;BME280;26304;48.794;9.820;2023-05-16T01:30:54;95981.63;;;17.90;55.48
40596;BME280;26304;48.794;9.820;2023-05-16T01:36:42;95987.59;;;17.87;55.46
40596;BME280;26304;48.794;9.820;2023-05-16T01:42:26;95977.09;;;17.87;55.67
40596;BME280;26304;48.794;9.820;2023-05-16T01:48:15;95969.94;;;17.80;55.61
40596;BME280;26304;48.794;9.820;2023-05-16T01:54:04;95980.84;;;17.75;55.52
40596;BME280;26304;48.794;9.820;2023-05-16T01:59:47;95966.22;;;17.77;55.31
40596;BME280;26304;48.794;9.820;2023-05-16T02:05:31;95977.47;;;17.82;55.86
40596;BME280;26304;48.794;9.820;2023-05-16T02:11:13;95980.09;;;17.82;55.80
40596;BME280;26304;48.794;9.820;2023-05-16T02:16:56;95990.25;;;17.79;55.57
40596;BME280;26304;48.794;9.820;2023-05-16T02:22:40;95990.22;;;17.87;55.28
40596;BME280;26304;48.794;9.820;2023-05-16T02:28:22;96000.75;;;17.79;55.47
40596;BME280;26304;48.794;9.820;2023-05-16T02:34:05;95987.22;;;17.74;55.43
40596;BME280;26304;48.794;9.820;2023-05-16T02:39:48;95990.97;;;17.73;55.62
40596;BME280;26304;48.794;9.820;2023-05-16T02:45:31;95986.44;;;17.66;55.81
40596;BME280;26304;48.794;9.820;2023-05-16T02:51:13;95988.34;;;17.69;55.60
40596;BME280;26304;48.794;9.820;2023-05-16T02:56:57;95995.09;;;17.74;55.81
40596;BME280;26304;48.794;9.820;2023-05-16T03:02:39;96000.72;;;17.69;55.24
40596;BME280;26304;48.794;9.820;2023-05-16T03:08:22;96000.00;;;17.65;55.75
40596;BME280;26304;48.794;9.820;2023-05-16T03:14:06;95992.84;;;17.65;55.61
40596;BME280;26304;48.794;9.820;2023-05-16T03:19:48;95999.22;;;17.64;55.16
40596;BME280;26304;48.794;9.820;2023-05-16T03:25:30;96002.22;;;17.66;55.40
40596;BME280;26304;48.794;9.820;2023-05-16T03:31:14;96008.25;;;17.63;55.44
40596;BME280;26304;48.794;9.820;2023-05-16T03:36:56;96012.34;;;17.64;55.35
40596;BME280;26304;48.794;9.820;2023-05-16T03:42:39;96013.50;;;17.63;55.39
40596;BME280;26304;48.794;9.820;2023-05-16T03:48:23;96007.47;;;17.63;55.56
40596;BME280;26304;48.794;9.820;2023-05-16T03:54:05;96003.72;;;17.60;55.00
40596;BME280;26304;48.794;9.820;2023-05-16T03:59:47;96004.47;;;17.60;55.31
40596;BME280;26304;48.794;9.820;2023-05-16T04:05:31;96006.72;;;17.58;55.63
40596;BME280;26304;48.794;9.820;2023-05-16T04:11:13;96010.09;;;17.59;55.48
40596;BME280;26304;48.794;9.820;2023-05-16T04:16:56;96003.31;;;17.54;55.21
40596;BME280;26304;48.794;9.820;2023-05-16T04:22:40;96007.47;;;17.55;55.51
40596;BME280;26304;48.794;9.820;2023-05-16T04:28:22;96002.94;;;17.52;55.45
40596;BME280;26304;48.794;9.820;2023-05-16T04:34:04;96014.94;;;17.53;55.57
40596;BME280;26304;48.794;9.820;2023-05-16T04:39:48;96023.56;;;17.47;55.59
40596;BME280;26304;48.794;9.820;2023-05-16T04:45:31;96023.56;;;17.47;55.15
40596;BME280;26304;48.794;9.820;2023-05-16T04:51:13;96024.72;;;17.46;55.28
40596;BME280;26304;48.794;9.820;2023-05-16T04:56:57;96032.19;;;17.43;55.61
40596;BME280;26304;48.794;9.820;2023-05-16T05:02:40;96027.69;;;17.40;55.58
40596;BME280;26304;48.794;9.820;2023-05-16T05:08:23;96036.28;;;17.27;55.68
40596;BME280;26304;48.794;9.820;2023-05-16T05:14:07;96038.84;;;17.16;56.00
40596;BME280;26304;48.794;9.820;2023-05-16T05:19:49;96038.19;;;17.37;56.01
40596;BME280;26304;48.794;9.820;2023-05-16T05:25:32;96031.09;;;17.48;55.23
40596;BME280;26304;48.794;9.820;2023-05-16T05:31:17;96042.00;;;17.54;55.51
40596;BME280;26304;48.794;9.820;2023-05-16T05:36:59;96045.00;;;17.56;55.20
40596;BME280;26304;48.794;9.820;2023-05-16T05:42:42;96042.00;;;17.54;55.59
40596;BME280;26304;48.794;9.820;2023-05-16T05:48:25;96041.69;;;17.70;55.03
40596;BME280;26304;48.794;9.820;2023-05-16T05:54:09;96051.03;;;17.71;55.73
40596;BME280;26304;48.794;9.820;2023-05-16T05:59:52;96057.06;;;17.71;55.46
40596;BME280;26304;48.794;9.820;2023-05-16T06:05:36;96068.38;;;17.83;55.68
40596;BME280;26304;48.794;9.820;2023-05-16T06:11:18;96066.19;;;17.99;56.48
40596;BME280;26304;48.794;9.820;2023-05-16T06:17:01;96069.94;;;18.05;56.53
40596;BME280;26304;48.794;9.820;2023-05-16T06:22:45;96072.22;;;18.25;56.60
40596;BME280;26304;48.794;9.820;2023-05-16T06:28:27;96067.72;;;18.22;56.40
40596;BME280;26304;48.794;9.820;2023-05-16T06:34:10;96072.59;;;18.20;56.55
40596;BME280;26304;48.794;9.820;2023-05-16T06:39:54;96072.59;;;18.20;57.03
40596;BME280;26304;48.794;9.820;2023-05-16T06:45:37;96065.47;;;18.24;56.87
40596;BME280;26304;48.794;9.820;2023-05-16T06:51:19;96058.31;;;18.31;56.66
40596;BME280;26304;48.794;9.820;2023-05-16T06:57:03;96065.47;;;18.34;56.76
40596;BME280;26304;48.794;9.820;2023-05-16T07:02:47;96071.50;;;18.35;56.84
40596;BME280;26304;48.794;9.820;2023-05-16T07:08:29;96083.53;;;18.40;56.39
40596;BME280;26304;48.794;9.820;2023-05-16T07:14:13;96083.16;;;18.41;56.19
40596;BME280;26304;48.794;9.820;2023-05-16T07:19:56;96086.13;;;18.32;56.62
40596;BME280;26304;48.794;9.820;2023-05-16T07:25:38;96086.88;;;18.33;56.26
40596;BME280;26304;48.794;9.820;2023-05-16T07:31:22;96082.38;;;18.41;56.22
40596;BME280;26304;48.794;9.820;2023-05-16T07:37:05;96097.81;;;18.42;55.95
40596;BME280;26304;48.794;9.820;2023-05-16T07:42:52;96096.31;;;18.45;56.06
40596;BME280;26304;48.794;9.820;2023-05-16T07:48:36;96094.78;;;18.47;55.96
40596;BME280;26304;48.794;9.820;2023-05-16T07:54:18;96092.53;;;18.46;55.55
40596;BME280;26304;48.794;9.820;2023-05-16T08:00:01;96106.81;;;18.52;55.35
40596;BME280;26304;48.794;9.820;2023-05-16T08:05:47;96100.06;;;18.69;56.67
40596;BME280;26304;48.794;9.820;2023-05-16T08:11:29;96105.31;;;18.83;55.19
40596;BME280;26304;48.794;9.820;2023-05-16T08:17:12;96117.38;;;18.92;55.76
40596;BME280;26304;48.794;9.820;2023-05-16T08:22:56;96114.00;;;18.73;56.53
40596;BME280;26304;48.794;9.820;2023-05-16T08:28:38;96106.84;;;18.70;56.26
40596;BME280;26304;48.794;9.820;2023-05-16T08:34:20;96115.84;;;18.44;56.00
40596;BME280;26304;48.794;9.820;2023-05-16T08:40:07;96118.09;;;18.42;56.45
40596;BME280;26304;48.794;9.820;2023-05-16T08:45:50;96122.59;;;18.38;54.90
40596;BME280;26304;48.794;9.820;2023-05-16T08:51:34;96121.09;;;18.33;55.09
40596;BME280;26304;48.794;9.820;2023-05-16T08:57:19;96122.63;;;18.41;55.31
40596;BME280;26304;48.794;9.820;2023-05-16T09:03:02;96126.38;;;18.62;55.41
40596;BME280;26304;48.794;9.820;2023-05-16T09:08:45;96126.38;;;18.76;56.45
40596;BME280;26304;48.794;9.820;2023-05-16T09:14:30;96130.19;;;18.86;56.48
40596;BME280;26304;48.794;9.820;2023-05-16T09:20:14;96132.81;;;18.93;55.90
40596;BME280;26304;48.794;9.820;2023-05-16T09:25:57;96131.69;;;18.98;56.29
40596;BME280;26304;48.794;9.820;2023-05-16T09:31:41;96136.94;;;18.94;56.24
40596;BME280;26304;48.794;9.820;2023-05-16T09:37:24;96135.81;;;18.99;56.51
40596;BME280;26304;48.794;9.820;2023-05-16T09:43:06;96149.72;;;19.17;55.43
40596;BME280;26304;48.794;9.820;2023-05-16T09:48:50;96140.34;;;19.02;56.07
40596;BME280;26304;48.794;9.820;2023-05-16T09:54:33;96141.81;;;19.06;55.36
40596;BME280;26304;48.794;9.820;2023-05-16T10:00:17;96138.41;;;19.24;55.65
40596;BME280;26304;48.794;9.820;2023-05-16T10:06:02;96132.38;;;19.27;56.61
40596;BME280;26304;48.794;9.820;2023-05-16T10:11:47;96133.13;;;19.31;55.86
40596;BME280;26304;48.794;9.820;2023-05-16T10:17:31;96135.75;;;19.35;55.53
40596;BME280;26304;48.794;9.820;2023-05-16T10:23:18;96140.63;;;19.44;56.52
40596;BME280;26304;48.794;9.820;2023-05-16T10:29:01;96155.34;;;19.27;55.63
40596;BME280;26304;48.794;9.820;2023-05-16T10:34:44;96158.78;;;18.91;55.02
40596;BME280;26304;48.794;9.820;2023-05-16T10:40:32;96154.22;;;18.81;54.36
40596;BME280;26304;48.794;9.820;2023-05-16T10:46:15;96165.16;;;18.68;53.70
40596;BME280;26304;48.794;9.820;2023-05-16T10:52:03;96159.50;;;18.59;53.64
40596;BME280;26304;48.794;9.820;2023-05-16T10:57:47;96160.63;;;18.55;53.52
40596;BME280;26304;48.794;9.820;2023-05-16T11:03:30;96170.75;;;18.45;54.43
40596;BME280;26304;48.794;9.820;2023-05-16T11:09:20;96167.72;;;18.36;54.43
40596;BME280;26304;48.794;9.820;2023-05-16T11:15:18;96167.72;;;18.36;53.92
40596;BME280;26304;48.794;9.820;2023-05-16T11:21:02;96173.72;;;18.33;53.84
40596;BME280;26304;48.794;9.820;2023-05-16T11:26:47;96179.34;;;18.28;53.75
40596;BME280;26304;48.794;9.820;2023-05-16T11:32:33;96179.72;;;18.23;53.58
40596;BME280;26304;48.794;9.820;2023-05-16T11:38:16;96168.44;;;18.19;54.08
40596;BME280;26304;48.794;9.820;2023-05-16T11:43:58;96169.56;;;18.18;54.34
40596;BME280;26304;48.794;9.820;2023-05-16T11:49:42;96174.44;;;18.15;54.24
40596;BME280;26304;48.794;9.820;2023-05-16T11:55:26;96181.59;;;18.19;53.70
40596;BME280;26304;48.794;9.820;2023-05-16T12:01:10;96182.72;;;18.18;53.09
40596;BME280;26304;48.794;9.820;2023-05-16T12:07:00;96184.94;;;18.15;53.32
40596;BME280;26304;48.794;9.820;2023-05-16T12:12:47;96188.31;;;18.12;53.48
40596;BME280;26304;48.794;9.820;2023-05-16T12:18:29;96193.22;;;18.14;52.96
40596;BME280;26304;48.794;9.820;2023-05-16T12:24:16;96190.56;;;18.10;53.39
40596;BME280;26304;48.794;9.820;2023-05-16T12:30:02;96196.56;;;18.00;53.24
40596;BME280;26304;48.794;9.820;2023-05-16T12:35:46;96191.63;;;17.91;53.57
40596;BME280;26304;48.794;9.820;2023-05-16T12:41:30;96184.06;;;17.86;54.07
40596;BME280;26304;48.794;9.820;2023-05-16T12:47:15;96185.25;;;17.89;53.94
40596;BME280;26304;48.794;9.820;2023-05-16T12:52:59;96184.44;;;17.85;54.08
40596;BME280;26304;48.794;9.820;2023-05-16T12:58:43;96200.28;;;17.92;53.92
40596;BME280;26304;48.794;9.820;2023-05-16T13:04:25;96192.41;;;17.92;54.45
40596;BME280;26304;48.794;9.820;2023-05-16T13:10:09;96184.16;;;17.97;53.36
40596;BME280;26304;48.794;9.820;2023-05-16T13:15:54;96186.47;;;18.09;53.75
40596;BME280;26304;48.794;9.820;2023-05-16T13:21:36;96206.38;;;18.14;53.48
40596;BME280;26304;48.794;9.820;2023-05-16T13:27:19;96197.72;;;18.13;53.68
40596;BME280;26304;48.794;9.820;2023-05-16T13:33:02;96196.94;;;18.02;53.59
40596;BME280;26304;48.794;9.820;2023-05-16T13:38:45;96202.97;;;18.06;53.84
40596;BME280;26304;48.794;9.820;2023-05-16T13:44:28;96212.00;;;18.09;53.84
40596;BME280;26304;48.794;9.820;2023-05-16T13:50:12;96213.47;;;17.99;54.13
40596;BME280;26304;48.794;9.820;2023-05-16T13:55:54;96226.25;;;18.01;53.39
40596;BME280;26304;48.794;9.820;2023-05-16T14:01:36;96229.97;;;17.96;53.92
40596;BME280;26304;48.794;9.820;2023-05-16T14:08:50;96240.88;;;17.98;53.72
40596;BME280;26304;48.794;9.820;2023-05-16T14:14:33;96246.19;;;18.05;52.92
40596;BME280;26304;48.794;9.820;2023-05-16T14:20:15;96256.28;;;18.00;53.21
40596;BME280;26304;48.794;9.820;2023-05-16T14:25:59;96254.38;;;17.93;53.05
40596;BME280;26304;48.794;9.820;2023-05-16T14:31:42;96263.06;;;17.97;52.26
40596;BME280;26304;48.794;9.820;2023-05-16T14:37:25;96256.28;;;17.96;52.93
40596;BME280;26304;48.794;9.820;2023-05-16T14:43:11;96259.63;;;17.93;52.96
40596;BME280;26304;48.794;9.820;2023-05-16T14:48:54;96273.53;;;17.90;52.39
40596;BME280;26304;48.794;9.820;2023-05-16T14:54:36;96276.94;;;17.90;52.33
40596;BME280;26304;48.794;9.820;2023-05-16T15:00:23;96273.84;;;17.85;52.55
40596;BME280;26304;48.794;9.820;2023-05-16T15:06:06;96272.69;;;17.82;52.31
40596;BME280;26304;48.794;9.820;2023-05-16T15:11:48;96268.19;;;17.79;52.32
40596;BME280;26304;48.794;9.820;2023-05-16T15:17:32;96285.44;;;17.76;52.76
40596;BME280;26304;48.794;9.820;2023-05-16T15:23:14;96280.13;;;17.69;52.65
40596;BME280;26304;48.794;9.820;2023-05-16T15:28:57;96284.69;;;17.76;52.08
40596;BME280;26304;48.794;9.820;2023-05-16T15:34:40;96289.50;;;17.63;52.53
40596;BME280;26304;48.794;9.820;2023-05-16T15:40:23;96296.22;;;17.57;52.20
40596;BME280;26304;48.794;9.820;2023-05-16T15:46:07;96301.06;;;17.55;52.15
40596;BME280;26304;48.794;9.820;2023-05-16T15:51:51;96296.53;;;17.52;52.43
40596;BME280;26304;48.794;9.820;2023-05-16T15:57:34;96307.03;;;17.52;52.23
40596;BME280;26304;48.794;9.820;2023-05-16T16:03:16;96294.66;;;17.49;51.92
40596;BME280;26304;48.794;9.820;2023-05-16T16:09:03;96299.88;;;17.45;51.77
40596;BME280;26304;48.794;9.820;2023-05-16T16:14:45;96303.31;;;17.53;51.63
40596;BME280;26304;48.794;9.820;2023-05-16T16:20:29;96295.03;;;17.51;51.80
40596;BME280;26304;48.794;9.820;2023-05-16T16:26:13;96291.97;;;17.41;52.08
40596;BME280;26304;48.794;9.820;2023-05-16T16:31:55;96292.31;;;17.36;51.90
40596;BME280;26304;48.794;9.820;2023-05-16T16:37:38;96294.59;;;17.45;51.72
40596;BME280;26304;48.794;9.820;2023-05-16T16:43:24;96302.47;;;17.41;51.44
40596;BME280;26304;48.794;9.820;2023-05-16T16:49:07;96306.38;;;17.58;51.01
40596;BME280;26304;48.794;9.820;2023-05-16T16:54:49;96320.00;;;17.75;50.90
40596;BME280;26304;48.794;9.820;2023-05-16T17:00:33;96343.94;;;17.66;51.50
40596;BME280;26304;48.794;9.820;2023-05-16T17:06:15;96333.56;;;17.81;51.34
40596;BME280;26304;48.794;9.820;2023-05-16T17:11:57;96347.81;;;17.79;51.49
40596;BME280;26304;48.794;9.820;2023-05-16T17:17:46;96349.41;;;17.91;50.90
40596;BME280;26304;48.794;9.820;2023-05-16T17:23:29;96359.22;;;17.98;51.35
40596;BME280;26304;48.794;9.820;2023-05-16T17:29:18;96366.06;;;18.06;52.52
40596;BME280;26304;48.794;9.820;2023-05-16T17:35:02;96356.75;;;18.20;53.03
40596;BME280;26304;48.794;9.820;2023-05-16T17:40:44;96359.56;;;18.56;50.80
40596;BME280;26304;48.794;9.820;2023-05-16T17:46:27;96364.75;;;18.41;50.41
40596;BME280;26304;48.794;9.820;2023-05-16T17:52:10;96368.06;;;18.27;51.00
40596;BME280;26304;48.794;9.820;2023-05-16T17:57:53;96387.19;;;18.21;50.74
40596;BME280;26304;48.794;9.820;2023-05-16T18:03:35;96384.06;;;18.04;50.80
40596;BME280;26304;48.794;9.820;2023-05-16T18:09:20;96389.31;;;18.01;50.53
40596;BME280;26304;48.794;9.820;2023-05-16T18:15:03;96390.03;;;17.94;50.20
40596;BME280;26304;48.794;9.820;2023-05-16T18:20:45;96401.22;;;17.87;50.03
40596;BME280;26304;48.794;9.820;2023-05-16T18:26:32;96411.69;;;17.84;49.56
40596;BME280;26304;48.794;9.820;2023-05-16T18:32:15;96414.69;;;17.82;50.26
40596;BME280;26304;48.794;9.820;2023-05-16T18:37:57;96424.25;;;17.97;49.72
40596;BME280;26304;48.794;9.820;2023-05-16T18:43:41;96430.31;;;18.05;50.57
40596;BME280;26304;48.794;9.820;2023-05-16T18:49:26;96422.88;;;18.14;50.08
40596;BME280;26304;48.794;9.820;2023-05-16T18:55:08;96429.94;;;18.03;49.92
40596;BME280;26304;48.794;9.820;2023-05-16T19:00:52;96438.94;;;18.06;50.65
40596;BME280;26304;48.794;9.820;2023-05-16T19:06:34;96432.19;;;18.05;50.80
40596;BME280;26304;48.794;9.820;2023-05-16T19:12:17;96443.47;;;18.05;50.65
40596;BME280;26304;48.794;9.820;2023-05-16T19:18:01;96444.09;;;17.91;49.98
40596;BME280;26304;48.794;9.820;2023-05-16T19:23:44;96458.28;;;17.83;49.66
40596;BME280;26304;48.794;9.820;2023-05-16T19:29:27;96469.13;;;17.78;49.40
40596;BME280;26304;48.794;9.820;2023-05-16T19:35:11;96474.41;;;17.82;49.52
40596;BME280;26304;48.794;9.820;2023-05-16T19:40:53;96471.16;;;17.92;50.48
40596;BME280;26304;48.794;9.820;2023-05-16T19:46:36;96473.47;;;17.97;50.35
40596;BME280;26304;48.794;9.820;2023-05-16T19:52:20;96484.28;;;17.51;49.79
40596;BME280;26304;48.794;9.820;2023-05-16T19:58:03;96480.66;;;17.29;49.11
40596;BME280;26304;48.794;9.820;2023-05-16T20:03:45;96488.88;;;17.27;49.00
40596;BME280;26304;48.794;9.820;2023-05-16T20:09:29;96492.25;;;17.28;47.79
40596;BME280;26304;48.794;9.820;2023-05-16T20:15:11;96487.13;;;17.04;47.77
40596;BME280;26304;48.794;9.820;2023-05-16T20:20:54;96499.94;;;17.10;48.31
40596;BME280;26304;48.794;9.820;2023-05-16T20:26:37;96502.22;;;17.11;48.57
40596;BME280;26304;48.794;9.820;2023-05-16T20:32:20;96508.91;;;17.09;48.19
40596;BME280;26304;48.794;9.820;2023-05-16T20:38:02;96509.97;;;17.04;48.22
40596;BME280;26304;48.794;9.820;2023-05-16T20:43:46;96514.44;;;17.00;47.62
40596;BME280;26304;48.794;9.820;2023-05-16T20:49:31;96515.13;;;16.93;47.78
40596;BME280;26304;48.794;9.820;2023-05-16T20:55:13;96522.94;;;16.89;46.78
40596;BME280;26304;48.794;9.820;2023-05-16T21:00:57;96538.22;;;16.84;46.23
40596;BME280;26304;48.794;9.820;2023-05-16T21:06:39;96529.94;;;16.82;46.01
40596;BME280;26304;48.794;9.820;2023-05-16T21:12:22;96535.91;;;16.79;46.46
40596;BME280;26304;48.794;9.820;2023-05-16T21:18:06;96544.47;;;16.76;46.29
40596;BME280;26304;48.794;9.820;2023-05-16T21:23:48;96543.31;;;16.73;45.39
40596;BME280;26304;48.794;9.820;2023-05-16T21:29:30;96547.09;;;16.76;45.49
40596;BME280;26304;48.794;9.820;2023-05-16T21:35:14;96558.72;;;16.75;45.88
40596;BME280;26304;48.794;9.820;2023-05-16T21:40:57;96563.16;;;16.70;45.65
40596;BME280;26304;48.794;9.820;2023-05-16T21:46:39;96573.22;;;16.68;45.89
40596;BME280;26304;48.794;9.820;2023-05-16T21:52:23;96571.03;;;16.70;46.24
40596;BME280;26304;48.794;9.820;2023-05-16T21:58:05;96575.84;;;16.68;46.34
40596;BME280;26304;48.794;9.820;2023-05-16T22:03:48;96576.16;;;16.63;45.62
40596;BME280;26304;48.794;9.820;2023-05-16T22:09:32;96565.97;;;16.58;45.47
40596;BME280;26304;48.794;9.820;2023-05-16T22:15:15;96563.66;;;16.53;45.24
40596;BME280;26304;48.794;9.820;2023-05-16T22:20:57;96564.34;;;16.50;45.23
40596;BME280;26304;48.794;9.820;2023-05-16T22:26:41;96560.16;;;16.45;44.98
40596;BME280;26304;48.794;9.820;2023-05-16T22:32:23;96564.16;;;16.39;44.65
40596;BME280;26304;48.794;9.820;2023-05-16T22:38:05;96578.72;;;16.37;44.65
40596;BME280;26304;48.794;9.820;2023-05-16T22:43:49;96574.19;;;16.33;44.81
40596;BME280;26304;48.794;9.820;2023-05-16T22:49:31;96578.63;;;16.29;44.57
40596;BME280;26304;48.794;9.820;2023-05-16T22:55:14;96593.59;;;16.29;44.69
40596;BME280;26304;48.794;9.820;2023-05-16T23:00:58;96597.34;;;16.28;44.70
40596;BME280;26304;48.794;9.820;2023-05-16T23:06:41;96601.69;;;16.20;44.46
40596;BME280;26304;48.794;9.820;2023-05-16T23:12:23;96611.50;;;16.23;44.07
40596;BME280;26304;48.794;9.820;2023-05-16T23:18:07;96603.56;;;16.20;43.95
40596;BME280;26304;48.794;9.820;2023-05-16T23:23:49;96613.56;;;16.14;44.04
40596;BME280;26304;48.794;9.820;2023-05-16T23:29:32;96618.00;;;16.10;44.11
40596;BME280;26304;48.794;9.820;2023-05-16T23:35:15;96619.09;;;16.09;43.92
40596;BME280;26304;48.794;9.820;2023-05-16T23:40:58;96627.25;;;16.04;44.06
40596;BME280;26304;48.794;9.820;2023-05-16T23:46:40;96627.94;;;16.01;43.72
40596;BME280;26304;48.794;9.820;2023-05-16T23:52:24;96636.50;;;15.97;43.77
40596;BME280;26304;48.794;9.820;2023-05-16T23:58:06;96639.81;;;15.94;44.06
